sensor_id;sensor_type;location;lat;lon;timestamp;temperature;humidity
79049;DHT22;68680;50.764;6.120;2023-06-10T00:01:46;17.70;83.00
79049;DHT22;68680;50.764;6.120;2023-06-10T00:04:13;17.70;83.30
79049;DHT22;68680;50.764;6.120;2023-06-10T00:06:39;17.70;83.80
79049;DHT22;68680;50.764;6.120;2023-06-10T00:09:05;17.60;84.50
79049;DHT22;68680;50.764;6.120;2023-06-10T00:11:31;17.60;84.30
79049;DHT22;68680;50.764;6.120;2023-06-10T00:13:56;17.60;84.80
79049;DHT22;68680;50.764;6.120;2023-06-10T00:16:22;17.50;84.60
79049;DHT22;68680;50.764;6.120;2023-06-10T00:18:48;17.50;84.40
79049;DHT22;68680;50.764;6.120;2023-06-10T00:21:16;17.60;83.90
79049;DHT22;68680;50.764;6.120;2023-06-10T00:23:41;17.60;83.60
79049;DHT22;68680;50.764;6.120;2023-06-10T00:26:07;17.60;84.30
79049;DHT22;68680;50.764;6.120;2023-06-10T00:28:33;17.60;84.10
79049;DHT22;68680;50.764;6.120;2023-06-10T00:30:58;17.60;85.10
79049;DHT22;68680;50.764;6.120;2023-06-10T00:33:24;17.50;84.70
79049;DHT22;68680;50.764;6.120;2023-06-10T00:35:49;17.50;84.80
79049;DHT22;68680;50.764;6.120;2023-06-10T00:38:16;17.50;83.90
79049;DHT22;68680;50.764;6.120;2023-06-10T00:40:42;17.50;84.80
79049;DHT22;68680;50.764;6.120;2023-06-10T00:43:08;17.40;85.00
79049;DHT22;68680;50.764;6.120;2023-06-10T00:45:34;17.30;85.20
79049;DHT22;68680;50.764;6.120;2023-06-10T00:48:00;17.30;84.80
79049;DHT22;68680;50.764;6.120;2023-06-10T00:50:26;17.30;85.60
79049;DHT22;68680;50.764;6.120;2023-06-10T00:52:52;17.20;85.30
79049;DHT22;68680;50.764;6.120;2023-06-10T00:55:20;17.20;85.50
79049;DHT22;68680;50.764;6.120;2023-06-10T00:57:47;17.20;85.10
79049;DHT22;68680;50.764;6.120;2023-06-10T01:00:13;17.10;84.70
79049;DHT22;68680;50.764;6.120;2023-06-10T01:02:39;17.10;85.10
79049;DHT22;68680;50.764;6.120;2023-06-10T01:05:05;17.10;84.60
79049;DHT22;68680;50.764;6.120;2023-06-10T01:07:36;17.10;84.00
79049;DHT22;68680;50.764;6.120;2023-06-10T01:10:09;17.00;86.10
79049;DHT22;68680;50.764;6.120;2023-06-10T01:12:41;16.90;86.00
79049;DHT22;68680;50.764;6.120;2023-06-10T01:15:09;16.80;85.90
79049;DHT22;68680;50.764;6.120;2023-06-10T01:17:37;16.70;86.70
79049;DHT22;68680;50.764;6.120;2023-06-10T01:20:16;16.70;86.90
79049;DHT22;68680;50.764;6.120;2023-06-10T01:22:43;16.70;87.00
79049;DHT22;68680;50.764;6.120;2023-06-10T01:25:08;16.70;87.70
79049;DHT22;68680;50.764;6.120;2023-06-10T01:27:37;16.60;87.70
79049;DHT22;68680;50.764;6.120;2023-06-10T01:30:10;16.60;87.60
79049;DHT22;68680;50.764;6.120;2023-06-10T01:32:41;16.60;87.70
79049;DHT22;68680;50.764;6.120;2023-06-10T01:35:08;16.60;87.60
79049;DHT22;68680;50.764;6.120;2023-06-10T01:37:34;16.70;87.80
79049;DHT22;68680;50.764;6.120;2023-06-10T01:40:03;16.60;87.30
79049;DHT22;68680;50.764;6.120;2023-06-10T01:42:29;16.50;88.60
79049;DHT22;68680;50.764;6.120;2023-06-10T01:44:55;16.40;88.80
79049;DHT22;68680;50.764;6.120;2023-06-10T01:47:20;16.40;88.40
79049;DHT22;68680;50.764;6.120;2023-06-10T01:49:46;16.40;89.50
79049;DHT22;68680;50.764;6.120;2023-06-10T01:52:12;16.40;88.80
79049;DHT22;68680;50.764;6.120;2023-06-10T01:54:38;16.40;89.00
79049;DHT22;68680;50.764;6.120;2023-06-10T01:57:05;16.30;89.10
79049;DHT22;68680;50.764;6.120;2023-06-10T01:59:30;16.30;88.80
79049;DHT22;68680;50.764;6.120;2023-06-10T02:01:56;16.30;88.60
79049;DHT22;68680;50.764;6.120;2023-06-10T02:04:22;16.30;89.60
79049;DHT22;68680;50.764;6.120;2023-06-10T02:06:47;16.20;89.20
79049;DHT22;68680;50.764;6.120;2023-06-10T02:09:13;16.20;89.60
79049;DHT22;68680;50.764;6.120;2023-06-10T02:11:38;16.20;89.50
79049;DHT22;68680;50.764;6.120;2023-06-10T02:14:05;16.20;89.90
79049;DHT22;68680;50.764;6.120;2023-06-10T02:16:31;16.20;90.10
79049;DHT22;68680;50.764;6.120;2023-06-10T02:18:56;16.30;89.80
79049;DHT22;68680;50.764;6.120;2023-06-10T02:21:22;16.20;89.80
79049;DHT22;68680;50.764;6.120;2023-06-10T02:23:48;16.20;89.90
79049;DHT22;68680;50.764;6.120;2023-06-10T02:26:13;16.30;89.60
79049;DHT22;68680;50.764;6.120;2023-06-10T02:28:42;16.20;89.80
79049;DHT22;68680;50.764;6.120;2023-06-10T02:31:09;16.20;90.10
79049;DHT22;68680;50.764;6.120;2023-06-10T02:33:34;16.10;90.20
79049;DHT22;68680;50.764;6.120;2023-06-10T02:36:00;16.00;90.60
79049;DHT22;68680;50.764;6.120;2023-06-10T02:38:26;15.90;91.00
79049;DHT22;68680;50.764;6.120;2023-06-10T02:40:51;15.80;90.90
79049;DHT22;68680;50.764;6.120;2023-06-10T02:43:17;15.80;90.80
79049;DHT22;68680;50.764;6.120;2023-06-10T02:45:42;15.80;90.90
79049;DHT22;68680;50.764;6.120;2023-06-10T02:48:09;15.80;91.20
79049;DHT22;68680;50.764;6.120;2023-06-10T02:50:35;15.90;90.90
79049;DHT22;68680;50.764;6.120;2023-06-10T02:53:00;15.90;90.90
79049;DHT22;68680;50.764;6.120;2023-06-10T02:55:26;15.80;90.80
79049;DHT22;68680;50.764;6.120;2023-06-10T02:57:52;15.80;91.10
79049;DHT22;68680;50.764;6.120;2023-06-10T03:00:18;15.70;91.40
79049;DHT22;68680;50.764;6.120;2023-06-10T03:02:43;15.60;91.30
79049;DHT22;68680;50.764;6.120;2023-06-10T03:05:10;15.60;91.40
79049;DHT22;68680;50.764;6.120;2023-06-10T03:07:36;15.60;91.40
79049;DHT22;68680;50.764;6.120;2023-06-10T03:10:02;15.70;91.40
79049;DHT22;68680;50.764;6.120;2023-06-10T03:12:28;15.70;91.30
79049;DHT22;68680;50.764;6.120;2023-06-10T03:14:54;15.70;91.30
79049;DHT22;68680;50.764;6.120;2023-06-10T03:17:19;15.70;91.20
79049;DHT22;68680;50.764;6.120;2023-06-10T03:19:45;15.60;91.20
79049;DHT22;68680;50.764;6.120;2023-06-10T03:22:13;15.70;91.20
79049;DHT22;68680;50.764;6.120;2023-06-10T03:24:39;15.70;91.20
79049;DHT22;68680;50.764;6.120;2023-06-10T03:27:05;15.70;91.30
79049;DHT22;68680;50.764;6.120;2023-06-10T03:29:30;15.70;91.20
79049;DHT22;68680;50.764;6.120;2023-06-10T03:31:56;15.60;91.40
79049;DHT22;68680;50.764;6.120;2023-06-10T03:34:22;15.60;91.50
79049;DHT22;68680;50.764;6.120;2023-06-10T03:36:47;15.50;91.40
79049;DHT22;68680;50.764;6.120;2023-06-10T03:39:14;15.50;91.80
79049;DHT22;68680;50.764;6.120;2023-06-10T03:41:40;15.50;91.90
79049;DHT22;68680;50.764;6.120;2023-06-10T03:44:05;15.40;91.90
79049;DHT22;68680;50.764;6.120;2023-06-10T03:46:31;15.50;91.70
79049;DHT22;68680;50.764;6.120;2023-06-10T03:48:56;15.50;91.90
79049;DHT22;68680;50.764;6.120;2023-06-10T03:51:22;15.50;91.80
79049;DHT22;68680;50.764;6.120;2023-06-10T03:53:48;15.50;91.80
79049;DHT22;68680;50.764;6.120;2023-06-10T03:56:14;15.50;91.90
79049;DHT22;68680;50.764;6.120;2023-06-10T03:58:40;15.50;91.90
79049;DHT22;68680;50.764;6.120;2023-06-10T04:01:06;15.50;91.80
79049;DHT22;68680;50.764;6.120;2023-06-10T04:03:31;15.50;91.70
79049;DHT22;68680;50.764;6.120;2023-06-10T04:05:57;15.40;91.70
79049;DHT22;68680;50.764;6.120;2023-06-10T04:08:22;15.40;91.90
79049;DHT22;68680;50.764;6.120;2023-06-10T04:10:48;15.40;92.10
79049;DHT22;68680;50.764;6.120;2023-06-10T04:13:15;15.40;92.00
79049;DHT22;68680;50.764;6.120;2023-06-10T04:15:40;15.50;92.00
79049;DHT22;68680;50.764;6.120;2023-06-10T04:18:06;15.50;91.90
79049;DHT22;68680;50.764;6.120;2023-06-10T04:20:32;15.60;91.90
79049;DHT22;68680;50.764;6.120;2023-06-10T04:22:58;15.60;92.00
79049;DHT22;68680;50.764;6.120;2023-06-10T04:25:23;15.60;91.80
79049;DHT22;68680;50.764;6.120;2023-06-10T04:27:49;15.60;91.70
79049;DHT22;68680;50.764;6.120;2023-06-10T04:30:16;15.60;91.90
79049;DHT22;68680;50.764;6.120;2023-06-10T04:32:42;15.70;91.80
79049;DHT22;68680;50.764;6.120;2023-06-10T04:35:10;15.70;91.90
79049;DHT22;68680;50.764;6.120;2023-06-10T04:37:36;15.70;91.70
79049;DHT22;68680;50.764;6.120;2023-06-10T04:40:02;15.70;91.80
79049;DHT22;68680;50.764;6.120;2023-06-10T04:42:28;15.80;91.40
79049;DHT22;68680;50.764;6.120;2023-06-10T04:44:53;15.90;91.60
79049;DHT22;68680;50.764;6.120;2023-06-10T04:47:20;15.90;91.50
79049;DHT22;68680;50.764;6.120;2023-06-10T04:49:46;15.90;91.60
79049;DHT22;68680;50.764;6.120;2023-06-10T04:52:11;16.00;91.30
79049;DHT22;68680;50.764;6.120;2023-06-10T04:54:37;16.00;91.40
79049;DHT22;68680;50.764;6.120;2023-06-10T04:57:03;16.10;91.30
79049;DHT22;68680;50.764;6.120;2023-06-10T04:59:28;16.10;91.30
79049;DHT22;68680;50.764;6.120;2023-06-10T05:01:54;16.20;91.30
79049;DHT22;68680;50.764;6.120;2023-06-10T05:04:21;16.20;91.40
79049;DHT22;68680;50.764;6.120;2023-06-10T05:06:47;16.30;91.10
79049;DHT22;68680;50.764;6.120;2023-06-10T05:09:12;16.30;91.30
79049;DHT22;68680;50.764;6.120;2023-06-10T05:11:38;16.40;91.20
79049;DHT22;68680;50.764;6.120;2023-06-10T05:14:03;16.40;91.50
79049;DHT22;68680;50.764;6.120;2023-06-10T05:16:29;16.40;91.60
79049;DHT22;68680;50.764;6.120;2023-06-10T05:18:54;16.50;92.00
79049;DHT22;68680;50.764;6.120;2023-06-10T05:21:21;16.50;91.90
79049;DHT22;68680;50.764;6.120;2023-06-10T05:23:47;16.60;92.20
79049;DHT22;68680;50.764;6.120;2023-06-10T05:26:12;16.70;92.10
79049;DHT22;68680;50.764;6.120;2023-06-10T05:28:38;16.80;91.90
79049;DHT22;68680;50.764;6.120;2023-06-10T05:31:04;16.90;92.00
79049;DHT22;68680;50.764;6.120;2023-06-10T05:33:29;17.00;92.00
79049;DHT22;68680;50.764;6.120;2023-06-10T05:35:55;17.00;92.10
79049;DHT22;68680;50.764;6.120;2023-06-10T05:38:22;17.10;92.10
79049;DHT22;68680;50.764;6.120;2023-06-10T05:40:47;17.20;92.10
79049;DHT22;68680;50.764;6.120;2023-06-10T05:43:13;17.30;92.10
79049;DHT22;68680;50.764;6.120;2023-06-10T05:45:39;17.40;92.10
79049;DHT22;68680;50.764;6.120;2023-06-10T05:48:05;17.60;92.00
79049;DHT22;68680;50.764;6.120;2023-06-10T05:50:30;17.70;91.90
79049;DHT22;68680;50.764;6.120;2023-06-10T05:52:56;17.80;91.80
79049;DHT22;68680;50.764;6.120;2023-06-10T05:55:23;17.90;91.60
79049;DHT22;68680;50.764;6.120;2023-06-10T05:57:58;17.90;91.50
79049;DHT22;68680;50.764;6.120;2023-06-10T06:00:24;18.10;91.50
79049;DHT22;68680;50.764;6.120;2023-06-10T06:02:49;18.20;91.20
79049;DHT22;68680;50.764;6.120;2023-06-10T06:05:15;18.30;91.40
79049;DHT22;68680;50.764;6.120;2023-06-10T06:07:40;18.40;91.30
79049;DHT22;68680;50.764;6.120;2023-06-10T06:10:07;18.60;91.00
79049;DHT22;68680;50.764;6.120;2023-06-10T06:12:34;18.70;91.00
79049;DHT22;68680;50.764;6.120;2023-06-10T06:14:59;18.80;90.50
79049;DHT22;68680;50.764;6.120;2023-06-10T06:17:25;19.00;88.90
79049;DHT22;68680;50.764;6.120;2023-06-10T06:19:51;19.10;87.30
79049;DHT22;68680;50.764;6.120;2023-06-10T06:22:16;19.30;85.00
79049;DHT22;68680;50.764;6.120;2023-06-10T06:24:42;19.30;83.20
79049;DHT22;68680;50.764;6.120;2023-06-10T06:27:07;19.50;80.20
79049;DHT22;68680;50.764;6.120;2023-06-10T06:29:34;19.60;79.90
79049;DHT22;68680;50.764;6.120;2023-06-10T06:32:00;19.80;76.80
79049;DHT22;68680;50.764;6.120;2023-06-10T06:34:25;20.00;77.00
79049;DHT22;68680;50.764;6.120;2023-06-10T06:36:51;20.10;76.90
79049;DHT22;68680;50.764;6.120;2023-06-10T06:39:17;20.20;76.90
79049;DHT22;68680;50.764;6.120;2023-06-10T06:41:42;20.30;76.20
79049;DHT22;68680;50.764;6.120;2023-06-10T06:44:08;20.40;75.20
79049;DHT22;68680;50.764;6.120;2023-06-10T06:46:35;20.50;75.00
79049;DHT22;68680;50.764;6.120;2023-06-10T06:49:00;20.60;74.40
79049;DHT22;68680;50.764;6.120;2023-06-10T06:51:26;20.70;74.20
79049;DHT22;68680;50.764;6.120;2023-06-10T06:53:51;20.80;72.60
79049;DHT22;68680;50.764;6.120;2023-06-10T06:56:17;20.90;71.60
79049;DHT22;68680;50.764;6.120;2023-06-10T06:58:43;21.00;70.60
79049;DHT22;68680;50.764;6.120;2023-06-10T07:01:08;21.10;70.00
79049;DHT22;68680;50.764;6.120;2023-06-10T07:03:35;21.20;69.30
79049;DHT22;68680;50.764;6.120;2023-06-10T07:06:01;21.30;69.10
79049;DHT22;68680;50.764;6.120;2023-06-10T07:08:26;21.40;68.70
79049;DHT22;68680;50.764;6.120;2023-06-10T07:10:52;21.50;68.10
79049;DHT22;68680;50.764;6.120;2023-06-10T07:13:18;21.50;66.50
79049;DHT22;68680;50.764;6.120;2023-06-10T07:15:43;21.70;66.10
79049;DHT22;68680;50.764;6.120;2023-06-10T07:18:09;21.80;68.80
79049;DHT22;68680;50.764;6.120;2023-06-10T07:20:36;21.90;69.90
79049;DHT22;68680;50.764;6.120;2023-06-10T07:23:01;22.00;70.00
79049;DHT22;68680;50.764;6.120;2023-06-10T07:25:27;22.00;70.50
79049;DHT22;68680;50.764;6.120;2023-06-10T07:27:52;22.00;70.60
79049;DHT22;68680;50.764;6.120;2023-06-10T07:30:18;22.00;70.20
79049;DHT22;68680;50.764;6.120;2023-06-10T07:32:44;22.20;70.50
79049;DHT22;68680;50.764;6.120;2023-06-10T07:35:10;22.20;69.10
79049;DHT22;68680;50.764;6.120;2023-06-10T07:37:37;22.30;68.90
79049;DHT22;68680;50.764;6.120;2023-06-10T07:40:03;22.30;69.20
79049;DHT22;68680;50.764;6.120;2023-06-10T07:42:29;22.50;69.30
79049;DHT22;68680;50.764;6.120;2023-06-10T07:44:54;22.50;69.00
79049;DHT22;68680;50.764;6.120;2023-06-10T07:47:20;22.50;69.40
79049;DHT22;68680;50.764;6.120;2023-06-10T07:49:45;22.60;67.90
79049;DHT22;68680;50.764;6.120;2023-06-10T07:52:11;22.70;66.90
79049;DHT22;68680;50.764;6.120;2023-06-10T07:54:38;22.80;65.90
79049;DHT22;68680;50.764;6.120;2023-06-10T07:57:04;22.80;65.30
79049;DHT22;68680;50.764;6.120;2023-06-10T07:59:30;22.90;64.50
79049;DHT22;68680;50.764;6.120;2023-06-10T08:01:55;23.00;65.10
79049;DHT22;68680;50.764;6.120;2023-06-10T08:04:21;23.00;64.00
79049;DHT22;68680;50.764;6.120;2023-06-10T08:06:47;23.10;63.70
79049;DHT22;68680;50.764;6.120;2023-06-10T08:09:12;23.10;62.00
79049;DHT22;68680;50.764;6.120;2023-06-10T08:11:39;23.20;62.00
79049;DHT22;68680;50.764;6.120;2023-06-10T08:14:05;23.30;61.60
79049;DHT22;68680;50.764;6.120;2023-06-10T08:16:30;23.30;62.80
79049;DHT22;68680;50.764;6.120;2023-06-10T08:18:56;23.50;60.20
79049;DHT22;68680;50.764;6.120;2023-06-10T08:21:21;23.50;61.10
79049;DHT22;68680;50.764;6.120;2023-06-10T08:23:47;23.50;61.70
79049;DHT22;68680;50.764;6.120;2023-06-10T08:26:13;23.60;60.70
79049;DHT22;68680;50.764;6.120;2023-06-10T08:28:40;23.70;60.90
79049;DHT22;68680;50.764;6.120;2023-06-10T08:31:05;23.70;60.10
79049;DHT22;68680;50.764;6.120;2023-06-10T08:33:31;23.90;59.20
79049;DHT22;68680;50.764;6.120;2023-06-10T08:35:56;24.00;58.90
79049;DHT22;68680;50.764;6.120;2023-06-10T08:38:22;24.00;59.30
79049;DHT22;68680;50.764;6.120;2023-06-10T08:40:47;24.10;59.40
79049;DHT22;68680;50.764;6.120;2023-06-10T08:43:17;24.20;59.60
79049;DHT22;68680;50.764;6.120;2023-06-10T08:45:48;24.30;58.00
79049;DHT22;68680;50.764;6.120;2023-06-10T08:48:16;24.40;57.40
79049;DHT22;68680;50.764;6.120;2023-06-10T08:50:42;24.50;57.00
79049;DHT22;68680;50.764;6.120;2023-06-10T08:53:08;24.60;57.30
79049;DHT22;68680;50.764;6.120;2023-06-10T08:55:38;24.80;57.10
79049;DHT22;68680;50.764;6.120;2023-06-10T08:58:07;24.70;56.40
79049;DHT22;68680;50.764;6.120;2023-06-10T09:00:34;24.80;57.10
79049;DHT22;68680;50.764;6.120;2023-06-10T09:03:01;24.90;56.00
79049;DHT22;68680;50.764;6.120;2023-06-10T09:05:27;24.90;55.30
79049;DHT22;68680;50.764;6.120;2023-06-10T09:07:53;24.90;56.40
79049;DHT22;68680;50.764;6.120;2023-06-10T09:10:18;24.80;56.10
79049;DHT22;68680;50.764;6.120;2023-06-10T09:12:44;24.90;55.10
79049;DHT22;68680;50.764;6.120;2023-06-10T09:15:10;25.00;55.10
79049;DHT22;68680;50.764;6.120;2023-06-10T09:17:36;25.10;53.80
79049;DHT22;68680;50.764;6.120;2023-06-10T09:20:03;25.10;53.40
79049;DHT22;68680;50.764;6.120;2023-06-10T09:22:29;25.10;52.50
79049;DHT22;68680;50.764;6.120;2023-06-10T09:25:03;25.20;51.10
79049;DHT22;68680;50.764;6.120;2023-06-10T09:27:30;25.20;50.40
79049;DHT22;68680;50.764;6.120;2023-06-10T09:29:55;25.30;52.00
79049;DHT22;68680;50.764;6.120;2023-06-10T09:32:21;25.30;52.20
79049;DHT22;68680;50.764;6.120;2023-06-10T09:34:47;25.50;49.90
79049;DHT22;68680;50.764;6.120;2023-06-10T09:37:20;25.50;50.50
79049;DHT22;68680;50.764;6.120;2023-06-10T09:40:01;25.40;51.20
79049;DHT22;68680;50.764;6.120;2023-06-10T09:42:27;25.60;51.10
79049;DHT22;68680;50.764;6.120;2023-06-10T09:44:52;25.50;51.80
79049;DHT22;68680;50.764;6.120;2023-06-10T09:47:21;25.60;51.40
79049;DHT22;68680;50.764;6.120;2023-06-10T09:49:47;25.60;51.40
79049;DHT22;68680;50.764;6.120;2023-06-10T09:52:14;25.60;50.00
79049;DHT22;68680;50.764;6.120;2023-06-10T09:54:39;25.70;49.50
79049;DHT22;68680;50.764;6.120;2023-06-10T09:57:07;25.80;49.70
79049;DHT22;68680;50.764;6.120;2023-06-10T09:59:33;25.70;49.20
79049;DHT22;68680;50.764;6.120;2023-06-10T10:01:59;25.80;47.90
79049;DHT22;68680;50.764;6.120;2023-06-10T10:04:24;25.80;47.50
79049;DHT22;68680;50.764;6.120;2023-06-10T10:06:50;25.90;48.80
79049;DHT22;68680;50.764;6.120;2023-06-10T10:09:17;25.90;47.30
79049;DHT22;68680;50.764;6.120;2023-06-10T10:11:43;25.90;47.30
79049;DHT22;68680;50.764;6.120;2023-06-10T10:14:09;26.00;46.70
79049;DHT22;68680;50.764;6.120;2023-06-10T10:16:36;26.00;46.80
79049;DHT22;68680;50.764;6.120;2023-06-10T10:19:07;26.00;47.00
79049;DHT22;68680;50.764;6.120;2023-06-10T10:21:35;26.00;46.50
79049;DHT22;68680;50.764;6.120;2023-06-10T10:24:07;26.00;46.50
79049;DHT22;68680;50.764;6.120;2023-06-10T10:26:38;26.10;46.30
79049;DHT22;68680;50.764;6.120;2023-06-10T10:29:10;26.20;45.70
79049;DHT22;68680;50.764;6.120;2023-06-10T10:31:36;26.20;46.80
79049;DHT22;68680;50.764;6.120;2023-06-10T10:34:06;26.20;45.20
79049;DHT22;68680;50.764;6.120;2023-06-10T10:36:32;26.30;45.40
79049;DHT22;68680;50.764;6.120;2023-06-10T10:38:58;26.30;45.00
79049;DHT22;68680;50.764;6.120;2023-06-10T10:41:24;26.20;44.70
79049;DHT22;68680;50.764;6.120;2023-06-10T10:43:53;26.20;45.00
79049;DHT22;68680;50.764;6.120;2023-06-10T10:46:19;26.30;43.70
79049;DHT22;68680;50.764;6.120;2023-06-10T10:48:46;26.40;44.50
79049;DHT22;68680;50.764;6.120;2023-06-10T10:51:17;26.40;45.20
79049;DHT22;68680;50.764;6.120;2023-06-10T10:53:42;26.40;43.50
79049;DHT22;68680;50.764;6.120;2023-06-10T10:56:12;26.40;43.80
79049;DHT22;68680;50.764;6.120;2023-06-10T10:58:38;26.40;43.80
79049;DHT22;68680;50.764;6.120;2023-06-10T11:01:13;26.50;44.80
79049;DHT22;68680;50.764;6.120;2023-06-10T11:03:45;26.60;44.80
79049;DHT22;68680;50.764;6.120;2023-06-10T11:06:14;26.50;44.60
79049;DHT22;68680;50.764;6.120;2023-06-10T11:08:47;26.70;44.00
79049;DHT22;68680;50.764;6.120;2023-06-10T11:11:23;26.70;44.60
79049;DHT22;68680;50.764;6.120;2023-06-10T11:13:58;26.70;44.10
79049;DHT22;68680;50.764;6.120;2023-06-10T11:16:26;26.80;43.80
79049;DHT22;68680;50.764;6.120;2023-06-10T11:18:53;26.80;44.90
79049;DHT22;68680;50.764;6.120;2023-06-10T11:21:19;26.80;45.90
79049;DHT22;68680;50.764;6.120;2023-06-10T11:23:45;26.80;44.70
79049;DHT22;68680;50.764;6.120;2023-06-10T11:26:29;26.80;44.40
79049;DHT22;68680;50.764;6.120;2023-06-10T11:29:06;26.80;44.70
79049;DHT22;68680;50.764;6.120;2023-06-10T11:31:38;26.90;44.50
79049;DHT22;68680;50.764;6.120;2023-06-10T11:34:05;27.00;43.60
79049;DHT22;68680;50.764;6.120;2023-06-10T11:36:32;27.00;43.70
79049;DHT22;68680;50.764;6.120;2023-06-10T11:38:59;27.00;43.50
79049;DHT22;68680;50.764;6.120;2023-06-10T11:41:25;27.00;43.40
79049;DHT22;68680;50.764;6.120;2023-06-10T11:43:52;27.00;42.20
79049;DHT22;68680;50.764;6.120;2023-06-10T11:46:18;27.20;41.00
79049;DHT22;68680;50.764;6.120;2023-06-10T11:48:50;27.30;39.60
79049;DHT22;68680;50.764;6.120;2023-06-10T11:51:16;27.40;39.90
79049;DHT22;68680;50.764;6.120;2023-06-10T11:53:43;27.50;39.50
79049;DHT22;68680;50.764;6.120;2023-06-10T11:56:09;27.50;39.20
79049;DHT22;68680;50.764;6.120;2023-06-10T11:58:35;27.60;40.00
79049;DHT22;68680;50.764;6.120;2023-06-10T12:01:00;27.70;39.00
79049;DHT22;68680;50.764;6.120;2023-06-10T12:03:26;27.70;37.50
79049;DHT22;68680;50.764;6.120;2023-06-10T12:05:58;27.90;37.00
79049;DHT22;68680;50.764;6.120;2023-06-10T12:08:24;28.00;37.30
79049;DHT22;68680;50.764;6.120;2023-06-10T12:10:49;28.20;36.70
79049;DHT22;68680;50.764;6.120;2023-06-10T12:13:15;28.30;36.20
79049;DHT22;68680;50.764;6.120;2023-06-10T12:15:41;28.60;36.00
79049;DHT22;68680;50.764;6.120;2023-06-10T12:18:06;28.80;35.70
79049;DHT22;68680;50.764;6.120;2023-06-10T12:20:33;29.20;35.40
79049;DHT22;68680;50.764;6.120;2023-06-10T12:23:00;29.80;35.70
79049;DHT22;68680;50.764;6.120;2023-06-10T12:25:27;30.70;33.20
79049;DHT22;68680;50.764;6.120;2023-06-10T12:27:55;31.50;32.60
79049;DHT22;68680;50.764;6.120;2023-06-10T12:30:21;32.30;32.30
79049;DHT22;68680;50.764;6.120;2023-06-10T12:32:47;32.90;30.20
79049;DHT22;68680;50.764;6.120;2023-06-10T12:35:16;33.40;30.00
79049;DHT22;68680;50.764;6.120;2023-06-10T12:37:42;33.60;29.90
79049;DHT22;68680;50.764;6.120;2023-06-10T12:40:10;34.00;29.50
79049;DHT22;68680;50.764;6.120;2023-06-10T12:42:36;34.40;28.50
79049;DHT22;68680;50.764;6.120;2023-06-10T12:45:03;34.30;27.50
79049;DHT22;68680;50.764;6.120;2023-06-10T12:47:32;34.10;27.80
79049;DHT22;68680;50.764;6.120;2023-06-10T12:49:58;34.70;28.20
79049;DHT22;68680;50.764;6.120;2023-06-10T12:52:24;35.40;27.70
79049;DHT22;68680;50.764;6.120;2023-06-10T12:54:49;35.50;27.60
79049;DHT22;68680;50.764;6.120;2023-06-10T12:57:16;35.60;28.40
79049;DHT22;68680;50.764;6.120;2023-06-10T12:59:42;35.30;28.20
79049;DHT22;68680;50.764;6.120;2023-06-10T13:02:08;34.60;28.80
79049;DHT22;68680;50.764;6.120;2023-06-10T13:04:33;34.50;28.80
79049;DHT22;68680;50.764;6.120;2023-06-10T13:06:59;34.10;28.50
79049;DHT22;68680;50.764;6.120;2023-06-10T13:09:24;33.90;28.60
79049;DHT22;68680;50.764;6.120;2023-06-10T13:11:50;34.10;28.90
79049;DHT22;68680;50.764;6.120;2023-06-10T13:14:17;34.00;29.10
79049;DHT22;68680;50.764;6.120;2023-06-10T13:16:43;33.40;29.20
79049;DHT22;68680;50.764;6.120;2023-06-10T13:19:08;32.80;30.10
79049;DHT22;68680;50.764;6.120;2023-06-10T13:21:34;32.30;31.80
79049;DHT22;68680;50.764;6.120;2023-06-10T13:24:00;32.10;32.80
79049;DHT22;68680;50.764;6.120;2023-06-10T13:26:25;31.90;32.30
79049;DHT22;68680;50.764;6.120;2023-06-10T13:28:51;32.20;32.50
79049;DHT22;68680;50.764;6.120;2023-06-10T13:31:18;32.50;31.40
79049;DHT22;68680;50.764;6.120;2023-06-10T13:33:43;32.40;30.50
79049;DHT22;68680;50.764;6.120;2023-06-10T13:36:09;32.10;32.10
79049;DHT22;68680;50.764;6.120;2023-06-10T13:38:35;31.90;32.10
79049;DHT22;68680;50.764;6.120;2023-06-10T13:41:00;32.50;30.40
79049;DHT22;68680;50.764;6.120;2023-06-10T13:43:26;33.40;28.20
79049;DHT22;68680;50.764;6.120;2023-06-10T13:45:51;34.30;28.10
79049;DHT22;68680;50.764;6.120;2023-06-10T13:48:18;35.40;27.40
79049;DHT22;68680;50.764;6.120;2023-06-10T13:50:44;34.30;27.90
79049;DHT22;68680;50.764;6.120;2023-06-10T13:53:09;33.00;29.20
79049;DHT22;68680;50.764;6.120;2023-06-10T13:55:35;32.00;31.00
79049;DHT22;68680;50.764;6.120;2023-06-10T13:58:01;31.00;31.30
79049;DHT22;68680;50.764;6.120;2023-06-10T14:00:26;30.20;31.80
79049;DHT22;68680;50.764;6.120;2023-06-10T14:02:53;29.50;32.90
79049;DHT22;68680;50.764;6.120;2023-06-10T14:05:20;29.10;33.00
79049;DHT22;68680;50.764;6.120;2023-06-10T14:07:45;28.90;34.20
79049;DHT22;68680;50.764;6.120;2023-06-10T14:10:11;29.40;34.20
79049;DHT22;68680;50.764;6.120;2023-06-10T14:12:37;31.30;31.10
79049;DHT22;68680;50.764;6.120;2023-06-10T14:15:03;33.20;28.70
79049;DHT22;68680;50.764;6.120;2023-06-10T14:17:28;34.70;27.70
79049;DHT22;68680;50.764;6.120;2023-06-10T14:19:54;35.40;26.80
79049;DHT22;68680;50.764;6.120;2023-06-10T14:22:21;36.00;26.00
79049;DHT22;68680;50.764;6.120;2023-06-10T14:24:46;36.50;26.70
79049;DHT22;68680;50.764;6.120;2023-06-10T14:27:12;36.60;25.90
79049;DHT22;68680;50.764;6.120;2023-06-10T14:29:38;36.90;26.00
79049;DHT22;68680;50.764;6.120;2023-06-10T14:32:04;37.10;25.30
79049;DHT22;68680;50.764;6.120;2023-06-10T14:34:29;37.50;25.30
79049;DHT22;68680;50.764;6.120;2023-06-10T14:36:55;37.10;23.90
79049;DHT22;68680;50.764;6.120;2023-06-10T14:39:22;37.10;24.60
79049;DHT22;68680;50.764;6.120;2023-06-10T14:41:48;37.10;23.80
79049;DHT22;68680;50.764;6.120;2023-06-10T14:44:14;37.10;24.30
79049;DHT22;68680;50.764;6.120;2023-06-10T14:46:39;36.70;24.70
79049;DHT22;68680;50.764;6.120;2023-06-10T14:49:05;35.60;25.20
79049;DHT22;68680;50.764;6.120;2023-06-10T14:51:30;34.50;26.10
79049;DHT22;68680;50.764;6.120;2023-06-10T14:53:56;33.40;26.80
79049;DHT22;68680;50.764;6.120;2023-06-10T14:56:23;32.40;28.50
79049;DHT22;68680;50.764;6.120;2023-06-10T14:58:48;31.60;28.70
79049;DHT22;68680;50.764;6.120;2023-06-10T15:01:14;31.20;29.80
79049;DHT22;68680;50.764;6.120;2023-06-10T15:03:40;30.80;29.90
79049;DHT22;68680;50.764;6.120;2023-06-10T15:06:05;30.40;29.20
79049;DHT22;68680;50.764;6.120;2023-06-10T15:08:31;30.10;30.00
79049;DHT22;68680;50.764;6.120;2023-06-10T15:10:56;29.80;29.90
79049;DHT22;68680;50.764;6.120;2023-06-10T15:13:23;29.60;30.70
79049;DHT22;68680;50.764;6.120;2023-06-10T15:15:49;29.40;30.90
79049;DHT22;68680;50.764;6.120;2023-06-10T15:18:14;29.30;30.90
79049;DHT22;68680;50.764;6.120;2023-06-10T15:20:40;29.20;31.20
79049;DHT22;68680;50.764;6.120;2023-06-10T15:23:06;29.00;31.20
79049;DHT22;68680;50.764;6.120;2023-06-10T15:25:31;28.80;31.70